Time;durP1;ratioP1;P1;durP2;ratioP2;P2;SDS_P1;SDS_P2;PMS_P1;PMS_P2;Temp;Humidity;BMP_temperature;BMP_pressure;BME280_temperature;BME280_humidity;BME280_pressure;Samples;Min_cycle;Max_cycle;Signal;HPM_P1;HPM_P2
2023/05/04 00:01:50;;;;;;;30.40;12.20;;;;;;;4.76;68.27;101273.52;106261;1277;24363;-56
2023/05/04 00:04:28;;;;;;;33.20;12.40;;;;;;;4.70;68.36;101272.40;106335;1264;22525;-57
2023/05/04 00:06:59;;;;;;;32.50;12.00;;;;;;;4.63;68.47;101273.37;110267;1270;22205;-56
2023/05/04 00:09:30;;;;;;;32.50;12.00;;;;;;;4.57;68.66;101274.86;110304;1260;22283;-56
2023/05/04 00:12:02;;;;;;;36.20;13.60;;;;;;;4.54;68.77;101272.53;110252;1270;22229;-56
2023/05/04 00:14:33;;;;;;;34.10;14.60;;;;;;;4.50;68.93;101268.86;110288;1277;22223;-57
2023/05/04 00:17:05;;;;;;;33.30;14.00;;;;;;;4.46;68.95;101263.38;110318;1267;22126;-56
2023/05/04 00:19:38;;;;;;;39.00;14.00;;;;;;;4.44;68.99;101259.61;110293;1270;22341;-55
2023/05/04 00:22:09;;;;;;;36.80;14.80;;;;;;;4.43;69.08;101257.48;110288;1270;22247;-57
2023/05/04 00:24:42;;;;;;;36.90;13.00;;;;;;;4.42;69.08;101258.52;110282;1267;22183;-58
2023/05/04 00:27:12;;;;;;;37.30;14.20;;;;;;;4.41;69.26;101253.88;110271;1273;22182;-55
2023/05/04 00:29:43;;;;;;;34.90;14.10;;;;;;;4.39;69.40;101253.98;110299;1269;22466;-56
2023/05/04 00:32:14;;;;;;;41.70;15.40;;;;;;;4.37;69.50;101252.02;110297;1273;22290;-55
2023/05/04 00:34:45;;;;;;;41.10;14.90;;;;;;;4.34;69.68;101258.23;110296;1267;22262;-57
2023/05/04 00:37:15;;;;;;;41.00;16.70;;;;;;;4.30;69.79;101255.91;110298;1269;23022;-57
2023/05/04 00:39:46;;;;;;;46.00;17.10;;;;;;;4.25;69.80;101253.98;110299;1266;22261;-58
2023/05/04 00:42:17;;;;;;;43.00;16.40;;;;;;;4.23;69.97;101255.11;110301;1266;22145;-58
2023/05/04 00:44:48;;;;;;;43.50;15.10;;;;;;;4.22;70.09;101249.04;110270;1264;22182;-57
2023/05/04 00:47:20;;;;;;;34.20;14.10;;;;;;;4.17;70.13;101247.04;110313;1277;23020;-55
2023/05/04 00:49:51;;;;;;;39.60;15.60;;;;;;;4.12;70.20;101248.11;110259;1270;22147;-57
2023/05/04 00:52:23;;;;;;;36.10;14.10;;;;;;;4.08;70.34;101250.52;110262;1269;22302;-55
2023/05/04 00:54:55;;;;;;;40.10;15.30;;;;;;;4.03;70.45;101255.23;110316;1270;22217;-56
2023/05/04 00:57:27;;;;;;;34.90;12.70;;;;;;;3.97;70.53;101259.23;110310;1267;22203;-57
2023/05/04 00:59:58;;;;;;;34.80;13.00;;;;;;;3.94;70.68;101255.72;110323;1269;22270;-55
2023/05/04 01:02:29;;;;;;;34.00;12.00;;;;;;;3.91;70.74;101256.38;110291;1277;22984;-56
2023/05/04 01:05:00;;;;;;;35.20;11.90;;;;;;;3.88;70.84;101256.49;110238;1263;22329;-55
2023/05/04 01:07:47;;;;;;;32.20;11.40;;;;;;;3.83;70.85;101257.31;110272;1266;22343;-57
2023/05/04 01:10:25;;;;;;;28.50;11.20;;;;;;;3.78;71.01;101258.08;110275;1269;22191;-57
2023/05/04 01:13:00;;;;;;;28.60;10.30;;;;;;;3.74;71.08;101258.89;110262;1270;22218;-60
2023/05/04 01:15:31;;;;;;;25.00;9.60;;;;;;;3.71;71.18;101259.95;110315;1273;22260;-58
2023/05/04 01:18:02;;;;;;;30.60;10.70;;;;;;;3.65;71.23;101263.55;110313;1270;22218;-57
2023/05/04 01:20:34;;;;;;;27.90;10.30;;;;;;;3.61;71.37;101261.14;110324;1277;22416;-60
2023/05/04 01:23:05;;;;;;;25.50;9.50;;;;;;;3.58;71.38;101265.50;110321;1270;22257;-58
2023/05/04 01:25:40;;;;;;;26.20;9.40;;;;;;;3.55;71.45;101265.30;110317;1267;22165;-59
2023/05/04 01:28:18;;;;;;;27.10;9.60;;;;;;;3.52;71.44;101263.27;110303;1273;22262;-58
2023/05/04 01:30:53;;;;;;;28.50;10.00;;;;;;;3.49;71.45;101261.80;110307;1270;22230;-57
2023/05/04 01:33:24;;;;;;;26.20;8.90;;;;;;;3.45;71.55;101265.13;110312;1267;22165;-58
2023/05/04 01:35:55;;;;;;;25.70;9.30;;;;;;;3.42;71.71;101260.75;110315;1264;22180;-58
2023/05/04 01:38:26;;;;;;;24.40;9.60;;;;;;;3.38;71.65;101264.17;110353;1277;22237;-58
2023/05/04 01:40:57;;;;;;;25.30;9.70;;;;;;;3.35;71.76;101261.50;110335;1264;22236;-58
2023/05/04 01:43:28;;;;;;;27.90;10.30;;;;;;;3.33;71.77;101262.54;110320;1269;22267;-58
2023/05/04 01:45:59;;;;;;;23.50;8.70;;;;;;;3.31;71.88;101259.16;110313;1262;22174;-58
2023/05/04 01:48:29;;;;;;;27.90;10.20;;;;;;;3.30;71.91;101253.10;110318;1267;22655;-57
2023/05/04 01:51:00;;;;;;;29.00;9.90;;;;;;;3.27;72.01;101254.46;110325;1262;22264;-59
2023/05/04 01:53:31;;;;;;;25.40;9.30;;;;;;;3.23;71.99;101255.13;110332;1277;22359;-58
2023/05/04 01:56:02;;;;;;;23.60;9.60;;;;;;;3.18;72.17;101254.20;110327;1273;22275;-60
2023/05/04 01:58:33;;;;;;;26.90;10.50;;;;;;;3.15;72.24;101254.08;110309;1271;22306;-57
2023/05/04 02:01:04;;;;;;;25.20;9.20;;;;;;;3.14;72.26;101255.89;110328;1270;22189;-59
2023/05/04 02:03:35;;;;;;;26.10;10.50;;;;;;;3.10;72.34;101261.13;110330;1269;22218;-58
2023/05/04 02:06:06;;;;;;;23.30;8.50;;;;;;;3.07;72.40;101256.73;110353;1267;22276;-58
2023/05/04 02:08:37;;;;;;;24.20;9.00;;;;;;;3.04;72.36;101262.66;110341;1270;22187;-59
2023/05/04 02:11:07;;;;;;;27.50;10.80;;;;;;;2.99;72.45;101259.37;110294;1273;23033;-58
2023/05/04 02:13:38;;;;;;;28.20;10.90;;;;;;;2.96;72.53;101262.15;110334;1270;23048;-58
2023/05/04 02:16:09;;;;;;;25.70;10.50;;;;;;;2.93;72.58;101257.42;110318;1267;22257;-58
2023/05/04 02:18:40;;;;;;;28.50;10.20;;;;;;;2.90;72.62;101255.88;110329;1266;22216;-57
2023/05/04 02:21:12;;;;;;;27.70;9.70;;;;;;;2.88;72.71;101253.84;110310;1265;22194;-59
2023/05/04 02:23:43;;;;;;;26.50;10.50;;;;;;;2.85;72.81;101254.88;110351;1270;22319;-59
2023/05/04 02:26:14;;;;;;;33.40;12.10;;;;;;;2.83;72.95;101253.24;110340;1277;22217;-58
2023/05/04 02:28:45;;;;;;;30.70;12.30;;;;;;;2.82;72.87;101250.25;110337;1266;22391;-59
2023/05/04 02:31:16;;;;;;;30.00;12.20;;;;;;;2.80;72.98;101245.84;110325;1270;22253;-58
2023/05/04 02:33:47;;;;;;;29.40;12.20;;;;;;;2.79;73.09;101251.29;110310;1262;22253;-60
2023/05/04 02:36:18;;;;;;;27.50;11.40;;;;;;;2.77;73.08;101255.72;110350;1268;22252;-58
2023/05/04 02:38:48;;;;;;;28.00;11.40;;;;;;;2.77;73.07;101248.54;110362;1270;22195;-57
2023/05/04 02:41:19;;;;;;;35.70;12.10;;;;;;;2.75;73.15;101247.98;110352;1277;22896;-60
2023/05/04 02:43:50;;;;;;;29.30;12.90;;;;;;;2.72;73.20;101243.44;110310;1269;22248;-58
2023/05/04 02:46:22;;;;;;;30.30;13.20;;;;;;;2.69;73.24;101248.73;110320;1270;22133;-58
2023/05/04 02:48:52;;;;;;;29.70;12.40;;;;;;;2.65;73.35;101248.84;110332;1265;22606;-57
2023/05/04 02:51:23;;;;;;;29.30;12.20;;;;;;;2.62;73.41;101245.38;110327;1270;22893;-60
2023/05/04 02:53:54;;;;;;;29.70;12.60;;;;;;;2.59;73.50;101245.72;110303;1262;22213;-58
2023/05/04 02:56:25;;;;;;;36.50;13.90;;;;;;;2.56;73.51;101244.62;110342;1277;22161;-62
2023/05/04 02:58:56;;;;;;;31.30;12.30;;;;;;;2.52;73.61;101248.89;110342;1273;22861;-58
2023/05/04 03:01:27;;;;;;;32.10;12.60;;;;;;;2.47;73.60;101244.26;110296;1271;22218;-58
2023/05/04 03:03:58;;;;;;;30.20;12.10;;;;;;;2.44;73.74;101244.36;110314;1262;22190;-58
2023/05/04 03:06:29;;;;;;;32.60;12.90;;;;;;;2.41;73.87;101246.96;110335;1270;22254;-59
2023/05/04 03:09:00;;;;;;;28.10;11.40;;;;;;;2.41;73.89;101252.09;110322;1270;22259;-59
2023/05/04 03:11:31;;;;;;;35.00;13.30;;;;;;;2.40;73.97;101248.70;110292;1277;22412;-59
2023/05/04 03:14:02;;;;;;;31.80;13.40;;;;;;;2.38;74.10;101247.44;110283;1273;22227;-61
2023/05/04 03:16:32;;;;;;;33.30;12.70;;;;;;;2.35;74.13;101247.05;110286;1273;23277;-60
2023/05/04 03:19:03;;;;;;;30.20;12.60;;;;;;;2.34;74.01;101249.90;110292;1270;22210;-60
2023/05/04 03:21:34;;;;;;;32.40;11.70;;;;;;;2.33;74.15;101249.11;110278;1270;22392;-59
2023/05/04 03:24:05;;;;;;;31.30;12.00;;;;;;;2.31;74.15;101251.58;110325;1270;22231;-59
2023/05/04 03:26:36;;;;;;;29.50;12.20;;;;;;;2.29;74.22;101249.37;110323;1270;22234;-60
2023/05/04 03:29:06;;;;;;;27.50;11.70;;;;;;;2.26;74.21;101252.29;110323;1270;22218;-61
2023/05/04 03:31:37;;;;;;;29.20;11.50;;;;;;;2.22;74.34;101251.36;110351;1270;22277;-59
2023/05/04 03:34:11;;;;;;;30.10;12.50;;;;;;;2.20;74.36;101252.46;110341;1270;22175;-59
2023/05/04 03:36:42;;;;;;;32.30;12.20;;;;;;;2.18;74.53;101257.81;110318;1269;22332;-61
2023/05/04 03:39:12;;;;;;;32.10;13.30;;;;;;;2.17;74.67;101254.13;110306;1271;23391;-61
2023/05/04 03:41:43;;;;;;;28.40;12.00;;;;;;;2.14;74.81;101258.92;110317;1270;23674;-60
2023/05/04 03:44:14;;;;;;;34.10;12.00;;;;;;;2.14;74.85;101257.52;110314;1270;22425;-60
2023/05/04 03:46:45;;;;;;;29.40;11.80;;;;;;;2.13;74.99;101255.01;110347;1265;22225;-59
2023/05/04 03:49:16;;;;;;;29.00;11.60;;;;;;;2.12;75.08;101258.23;106749;1262;24630;-60
2023/05/04 03:51:47;;;;;;;34.30;14.00;;;;;;;2.12;75.16;101257.28;110341;1270;22368;-62
2023/05/04 03:54:18;;;;;;;34.70;13.10;;;;;;;2.12;75.27;101256.34;110323;1262;22179;-59
2023/05/04 03:56:48;;;;;;;32.70;13.60;;;;;;;2.13;75.43;101258.23;110328;1270;22249;-61
2023/05/04 03:59:19;;;;;;;33.40;14.30;;;;;;;2.13;75.63;101253.90;110310;1277;22200;-61
2023/05/04 04:01:50;;;;;;;35.80;13.70;;;;;;;2.13;75.74;101261.38;110312;1266;22164;-59
2023/05/04 04:04:21;;;;;;;36.00;14.40;;;;;;;2.14;75.93;101265.07;110315;1270;23200;-60
2023/05/04 04:06:52;;;;;;;38.10;13.20;;;;;;;2.14;76.08;101267.52;110296;1268;22155;-59
2023/05/04 04:09:22;;;;;;;35.30;14.30;;;;;;;2.15;76.25;101265.70;110331;1270;23437;-59
2023/05/04 04:11:53;;;;;;;34.20;14.20;;;;;;;2.18;76.39;101264.66;110310;1269;22460;-59
2023/05/04 04:14:24;;;;;;;34.10;14.30;;;;;;;2.20;76.49;101267.73;110345;1277;22851;-58
2023/05/04 04:16:55;;;;;;;34.30;14.20;;;;;;;2.23;76.74;101271.11;110335;1270;22207;-59
2023/05/04 04:19:26;;;;;;;29.80;13.30;;;;;;;2.27;76.94;101277.41;110330;1267;22452;-60
2023/05/04 04:21:58;;;;;;;37.50;14.20;;;;;;;2.33;77.00;101276.29;108588;1262;22609;-59
2023/05/04 04:24:30;;;;;;;32.30;12.30;;;;;;;2.39;77.04;101279.33;110322;1262;22199;-57
2023/05/04 04:27:01;;;;;;;34.60;13.60;;;;;;;2.45;77.22;101277.27;110310;1269;22203;-59
2023/05/04 04:29:34;;;;;;;30.70;13.10;;;;;;;2.53;77.24;101271.02;110316;1270;22233;-59
2023/05/04 04:32:05;;;;;;;32.10;12.50;;;;;;;2.61;77.50;101270.03;110357;1270;22291;-58
2023/05/04 04:34:36;;;;;;;31.80;13.90;;;;;;;2.69;77.59;101271.59;110327;1267;22374;-58
2023/05/04 04:37:07;;;;;;;30.80;13.50;;;;;;;2.77;77.75;101271.46;110294;1267;22289;-59
2023/05/04 04:39:38;;;;;;;32.80;13.90;;;;;;;2.85;77.87;101273.24;110284;1262;22328;-63
2023/05/04 04:42:09;;;;;;;30.70;12.90;;;;;;;2.94;77.91;101270.20;110291;1268;22259;-60
2023/05/04 04:44:40;;;;;;;34.50;14.20;;;;;;;3.05;77.65;101270.69;110280;1270;22202;-60
2023/05/04 04:47:11;;;;;;;29.70;13.30;;;;;;;3.15;77.92;101270.08;110313;1267;22196;-60
2023/05/04 04:49:42;;;;;;;31.70;13.80;;;;;;;3.26;78.07;101271.50;110313;1266;22173;-61
2023/05/04 04:52:13;;;;;;;44.10;18.80;;;;;;;3.37;78.89;101274.17;110284;1266;22488;-61
2023/05/04 04:54:44;;;;;;;39.00;15.90;;;;;;;3.52;79.33;101277.40;110321;1262;22310;-61
2023/05/04 04:57:14;;;;;;;47.40;18.10;;;;;;;3.64;79.44;101274.45;110327;1262;22333;-60
2023/05/04 04:59:46;;;;;;;36.70;16.60;;;;;;;3.76;79.46;101279.55;110295;1262;22277;-59
2023/05/04 05:02:16;;;;;;;42.90;17.90;;;;;;;3.90;80.08;101284.80;110306;1277;22263;-61
2023/05/04 05:04:48;;;;;;;42.60;17.10;;;;;;;4.03;80.35;101282.85;110259;1262;22212;-59
2023/05/04 05:07:19;;;;;;;33.60;15.80;;;;;;;4.16;80.52;101276.33;110261;1271;22986;-59
2023/05/04 05:09:50;;;;;;;33.70;14.30;;;;;;;4.29;80.32;101274.95;110236;1267;22234;-59
2023/05/04 05:12:21;;;;;;;30.80;13.50;;;;;;;4.43;80.47;101276.52;110304;1277;22186;-61
2023/05/04 05:14:52;;;;;;;33.50;14.40;;;;;;;4.57;80.27;101273.60;110333;1270;22504;-58
2023/05/04 05:17:22;;;;;;;29.90;10.90;;;;;;;4.72;80.19;101276.33;110345;1277;23091;-59
2023/05/04 05:19:53;;;;;;;31.80;10.20;;;;;;;4.85;79.55;101272.29;110329;1266;22383;-60
2023/05/04 05:22:24;;;;;;;28.80;11.80;;;;;;;5.00;79.86;101270.91;110255;1270;22209;-59
2023/05/04 05:24:55;;;;;;;29.30;11.40;;;;;;;5.21;79.74;101268.08;110279;1269;22213;-59
2023/05/04 05:27:26;;;;;;;27.80;10.70;;;;;;;5.38;79.55;101272.24;110301;1262;22325;-60
2023/05/04 05:29:58;;;;;;;27.40;9.50;;;;;;;5.52;79.02;101268.71;110299;1262;22267;-60
2023/05/04 05:32:28;;;;;;;25.80;8.00;;;;;;;5.61;78.15;101266.65;110294;1277;22182;-60
2023/05/04 05:34:59;;;;;;;25.60;8.20;;;;;;;5.69;77.34;101265.04;110322;1268;22168;-60
2023/05/04 05:37:31;;;;;;;24.80;8.60;;;;;;;5.78;77.39;101263.78;110298;1268;22335;-60
2023/05/04 05:40:04;;;;;;;27.70;9.50;;;;;;;5.86;77.50;101262.80;110314;1270;22165;-60
2023/05/04 05:42:35;;;;;;;21.80;8.80;;;;;;;5.98;77.63;101266.55;110280;1271;22956;-61
2023/05/04 05:45:07;;;;;;;26.00;9.50;;;;;;;6.07;77.30;101266.84;110295;1267;22224;-60
2023/05/04 05:47:41;;;;;;;36.60;10.10;;;;;;;6.20;77.89;101264.16;110311;1270;22945;-59
2023/05/04 05:50:14;;;;;;;25.30;9.20;;;;;;;6.41;78.05;101262.66;110326;1277;22145;-60
2023/05/04 05:52:45;;;;;;;25.00;9.80;;;;;;;6.63;77.81;101265.79;110293;1266;22312;-61
2023/05/04 05:55:16;;;;;;;25.80;10.40;;;;;;;6.80;77.65;101270.19;110273;1270;22267;-61
2023/05/04 05:57:47;;;;;;;25.90;9.90;;;;;;;6.99;77.28;101267.53;110323;1271;22273;-60
2023/05/04 06:00:19;;;;;;;27.60;11.40;;;;;;;7.15;76.92;101271.48;110325;1266;22164;-61
2023/05/04 06:02:50;;;;;;;26.90;9.70;;;;;;;7.31;76.67;101272.77;110244;1270;23133;-61
2023/05/04 06:05:21;;;;;;;22.90;8.70;;;;;;;7.49;76.83;101269.19;110331;1270;23314;-59
2023/05/04 06:07:52;;;;;;;24.90;9.20;;;;;;;7.69;76.32;101271.23;110314;1262;22432;-60
2023/05/04 06:10:22;;;;;;;25.80;10.10;;;;;;;7.86;75.93;101270.02;110318;1262;22123;-61
2023/05/04 06:12:53;;;;;;;30.60;11.80;;;;;;;8.03;74.98;101273.91;110316;1262;22132;-60
2023/05/04 06:15:24;;;;;;;25.80;10.30;;;;;;;8.16;74.59;101273.44;110315;1270;22328;-59
2023/05/04 06:17:55;;;;;;;30.00;10.10;;;;;;;8.26;74.26;101276.68;110293;1270;22225;-60
2023/05/04 06:20:26;;;;;;;24.20;9.90;;;;;;;8.34;73.59;101279.36;110327;1277;22269;-59
2023/05/04 06:22:58;;;;;;;26.50;8.70;;;;;;;8.43;73.22;101278.70;110305;1271;22920;-60
2023/05/04 06:25:29;;;;;;;23.30;8.50;;;;;;;8.52;73.19;101282.02;110319;1268;22176;-60
2023/05/04 06:28:00;;;;;;;21.90;8.20;;;;;;;8.60;72.33;101283.31;110283;1271;23044;-61
2023/05/04 06:30:31;;;;;;;20.20;8.00;;;;;;;8.69;73.01;101281.84;110316;1270;22310;-60
2023/05/04 06:33:02;;;;;;;22.50;8.50;;;;;;;8.80;72.63;101280.17;110305;1262;22460;-60
2023/05/04 06:35:36;;;;;;;19.40;6.30;;;;;;;8.95;72.54;101280.24;110312;1271;22248;-60
2023/05/04 06:38:07;;;;;;;20.20;6.90;;;;;;;9.07;71.98;101279.22;110300;1273;22203;-61
2023/05/04 06:40:38;;;;;;;22.70;8.00;;;;;;;9.19;71.77;101285.94;110314;1268;22388;-60
2023/05/04 06:43:09;;;;;;;19.70;6.90;;;;;;;9.28;70.83;101282.88;110288;1270;22224;-61
2023/05/04 06:45:40;;;;;;;19.50;6.50;;;;;;;9.35;70.92;101281.85;110331;1268;22141;-60
2023/05/04 06:48:12;;;;;;;18.70;6.50;;;;;;;9.48;70.65;101284.64;110317;1270;22259;-60
2023/05/04 06:50:44;;;;;;;16.90;6.30;;;;;;;9.60;70.32;101280.52;110266;1269;22332;-61
2023/05/04 06:53:15;;;;;;;24.50;7.70;;;;;;;9.71;70.16;101280.39;110342;1270;22330;-60
2023/05/04 06:55:46;;;;;;;21.20;7.90;;;;;;;9.81;69.83;101279.04;110317;1270;22214;-60
2023/05/04 06:58:18;;;;;;;18.20;5.90;;;;;;;9.91;69.52;101278.77;110335;1267;22953;-60
2023/05/04 07:00:50;;;;;;;15.50;5.60;;;;;;;10.02;69.29;101281.65;110355;1270;22150;-60
2023/05/04 07:03:20;;;;;;;16.00;5.40;;;;;;;10.14;69.13;101283.17;107517;1270;22676;-59
2023/05/04 07:05:52;;;;;;;21.80;6.20;;;;;;;10.24;68.40;101279.96;106495;1263;25441;-58
2023/05/04 07:08:23;;;;;;;19.50;5.80;;;;;;;10.34;67.73;101284.70;106431;1271;25572;-59
2023/05/04 07:10:54;;;;;;;16.60;5.30;;;;;;;10.43;67.75;101280.70;106428;1271;25492;-60
2023/05/04 07:13:24;;;;;;;15.70;4.90;;;;;;;10.55;67.65;101281.95;106343;1265;22741;-60
2023/05/04 07:15:55;;;;;;;17.30;6.40;;;;;;;10.67;67.11;101279.06;106404;1262;24430;-62
2023/05/04 07:18:26;;;;;;;22.90;5.80;;;;;;;10.73;66.14;101279.72;106421;1271;22598;-59
2023/05/04 07:20:57;;;;;;;16.00;5.70;;;;;;;10.78;65.97;101277.39;106487;1262;24271;-59
2023/05/04 07:23:28;;;;;;;18.60;6.00;;;;;;;10.85;65.98;101275.36;106593;1277;22539;-58
2023/05/04 07:25:59;;;;;;;16.00;4.00;;;;;;;10.91;65.82;101273.30;106471;1277;23019;-60
2023/05/04 07:28:30;;;;;;;14.20;3.40;;;;;;;11.02;64.68;101274.63;106552;1277;25428;-60
2023/05/04 07:31:01;;;;;;;16.50;4.50;;;;;;;11.12;63.97;101275.34;106413;1267;22513;-61
2023/05/04 07:33:32;;;;;;;10.90;2.90;;;;;;;11.23;63.45;101274.86;106392;1270;22632;-62
2023/05/04 07:36:03;;;;;;;13.30;2.90;;;;;;;11.36;63.77;101269.23;106253;1269;22537;-60
2023/05/04 07:38:34;;;;;;;13.20;2.80;;;;;;;11.47;63.72;101267.56;106440;1272;24413;-62
2023/05/04 07:41:06;;;;;;;15.40;3.40;;;;;;;11.56;63.05;101268.56;106327;1268;24338;-62
2023/05/04 07:43:37;;;;;;;12.80;3.50;;;;;;;11.61;62.05;101270.61;106511;1267;22527;-62
2023/05/04 07:46:07;;;;;;;9.40;2.70;;;;;;;11.63;61.59;101261.25;108823;1270;24290;-61
2023/05/04 07:48:38;;;;;;;11.00;2.50;;;;;;;11.69;61.37;101256.88;106289;1273;24338;-62
2023/05/04 07:51:14;;;;;;;9.70;2.30;;;;;;;11.84;61.32;101255.68;106334;1272;22647;-61
2023/05/04 07:53:45;;;;;;;12.20;2.90;;;;;;;11.98;61.12;101258.44;109458;1270;24212;-62
2023/05/04 07:56:16;;;;;;;8.30;1.70;;;;;;;12.08;60.28;101256.58;106284;1270;22523;-62
2023/05/04 07:58:47;;;;;;;8.40;1.80;;;;;;;12.15;59.49;101253.02;106318;1259;22567;-63
2023/05/04 08:01:18;;;;;;;13.80;1.90;;;;;;;12.24;58.50;101251.02;110147;1270;22510;-63
2023/05/04 08:03:49;;;;;;;10.80;1.90;;;;;;;12.31;57.99;101248.37;106400;1274;22528;-63
2023/05/04 08:06:20;;;;;;;7.40;2.00;;;;;;;12.38;57.10;101244.71;106373;1273;24235;-62
2023/05/04 08:08:52;;;;;;;8.30;2.00;;;;;;;12.46;57.27;101248.13;108259;1262;23970;-62
2023/05/04 08:11:24;;;;;;;7.20;1.60;;;;;;;12.62;57.26;101251.27;106578;1277;23000;-69
2023/05/04 08:13:55;;;;;;;9.50;1.70;;;;;;;12.75;56.37;101247.94;107075;1277;22627;-63
2023/05/04 08:16:28;;;;;;;7.70;1.70;;;;;;;12.82;56.15;101245.49;106475;1277;25395;-62
2023/05/04 08:19:00;;;;;;;6.20;1.40;;;;;;;12.88;55.49;101247.44;106552;1277;25247;-61
2023/05/04 08:21:31;;;;;;;7.00;1.40;;;;;;;12.95;55.49;101242.96;106508;1274;24397;-63
2023/05/04 08:24:03;;;;;;;8.00;1.40;;;;;;;13.04;54.93;101243.36;106540;1273;22519;-59
2023/05/04 08:26:36;;;;;;;7.00;1.30;;;;;;;13.12;54.86;101246.78;106609;1277;22523;-64
2023/05/04 08:29:09;;;;;;;7.10;1.20;;;;;;;13.19;54.47;101247.06;106618;1276;22531;-62
2023/05/04 08:31:40;;;;;;;6.50;1.10;;;;;;;13.29;54.01;101244.13;106554;1262;22520;-60
2023/05/04 08:34:11;;;;;;;6.40;1.20;;;;;;;13.42;52.81;101240.52;106810;1277;25451;-64
2023/05/04 08:36:42;;;;;;;6.50;1.30;;;;;;;13.47;52.64;101233.64;106705;1267;22520;-63
2023/05/04 08:39:13;;;;;;;4.10;0.90;;;;;;;13.51;52.82;101237.05;106661;1274;22545;-62
2023/05/04 08:41:44;;;;;;;5.50;1.10;;;;;;;13.59;52.22;101233.57;106637;1276;25502;-62
2023/05/04 08:44:17;;;;;;;4.90;1.10;;;;;;;13.72;50.84;101232.46;106670;1277;22640;-62
2023/05/04 08:46:52;;;;;;;5.90;1.00;;;;;;;13.75;51.35;101231.58;106649;1271;25346;-62
2023/05/04 08:49:25;;;;;;;4.90;1.30;;;;;;;13.76;50.31;101232.10;106798;1273;22535;-61
2023/05/04 08:51:57;;;;;;;10.40;1.10;;;;;;;13.75;50.40;101237.19;106673;1277;22609;-63
2023/05/04 08:54:29;;;;;;;5.10;1.00;;;;;;;13.81;50.69;101231.39;106625;1270;24701;-60
2023/05/04 08:57:02;;;;;;;12.20;1.50;;;;;;;13.90;50.15;101229.14;106605;1270;22515;-63
2023/05/04 08:59:35;;;;;;;6.30;1.40;;;;;;;14.02;50.02;101221.95;106604;1267;22520;-63
2023/05/04 09:02:07;;;;;;;5.20;1.20;;;;;;;14.08;49.34;101217.30;106661;1270;22567;-64
2023/05/04 09:04:39;;;;;;;8.20;1.10;;;;;;;14.09;48.87;101220.45;106854;1273;22518;-64
2023/05/04 09:07:10;;;;;;;8.40;1.30;;;;;;;14.17;48.50;101217.73;106752;1262;22537;-63
2023/05/04 09:09:41;;;;;;;6.60;1.20;;;;;;;14.18;48.17;101212.00;106709;1267;22524;-62
2023/05/04 09:12:12;;;;;;;4.40;1.00;;;;;;;14.17;47.95;101209.95;106614;1273;22553;-62
2023/05/04 09:14:45;;;;;;;4.30;1.10;;;;;;;14.19;47.82;101216.91;106723;1276;22520;-62
2023/05/04 09:17:24;;;;;;;6.90;1.10;;;;;;;14.25;48.24;101217.10;106523;1277;24252;-63
2023/05/04 09:20:02;;;;;;;6.80;1.00;;;;;;;14.34;47.40;101214.84;106548;1277;25491;-62
2023/05/04 09:22:35;;;;;;;9.50;2.10;;;;;;;14.33;45.69;101205.11;106573;1262;22528;-61
2023/05/04 09:25:14;;;;;;;5.70;1.70;;;;;;;14.27;46.16;101205.08;106626;1270;22510;-61
2023/05/04 09:27:55;;;;;;;8.50;1.80;;;;;;;14.27;46.63;101206.61;106554;1271;22594;-61
2023/05/04 09:30:25;;;;;;;;;;;;;;;14.32;47.00;101202.34;106353;1275;22508;-61
2023/05/04 09:32:56;;;;;;;4.00;1.00;;;;;;;14.39;46.61;101199.31;106742;1271;24384;-61
2023/05/04 09:35:30;;;;;;;4.50;1.00;;;;;;;14.46;46.33;101196.79;106528;1277;25599;-61
2023/05/04 09:38:02;;;;;;;5.20;1.20;;;;;;;14.50;45.95;101200.02;106449;1273;22519;-61
2023/05/04 09:40:36;;;;;;;5.40;1.40;;;;;;;14.54;45.80;101193.77;106675;1270;22540;-61
2023/05/04 09:43:09;;;;;;;6.80;1.20;;;;;;;14.62;45.49;101191.05;106505;1277;25349;-60
2023/05/04 09:45:46;;;;;;;5.40;0.90;;;;;;;14.72;45.52;101191.98;106494;1271;22534;-61
2023/05/04 09:48:19;;;;;;;8.10;1.20;;;;;;;14.82;45.45;101187.16;106593;1258;22517;-62
2023/05/04 09:50:54;;;;;;;6.80;1.30;;;;;;;14.87;45.56;101186.63;106731;1269;22525;-61
2023/05/04 09:53:27;;;;;;;5.50;1.10;;;;;;;15.01;44.98;101185.48;106583;1272;22520;-61
2023/05/04 09:56:13;;;;;;;6.60;1.00;;;;;;;15.08;44.38;101177.82;106418;1272;22525;-61
2023/05/04 09:58:45;;;;;;;5.00;1.10;;;;;;;15.06;43.85;101175.22;106549;1267;22520;-62
2023/05/04 10:01:18;;;;;;;7.60;1.20;;;;;;;15.04;43.83;101177.13;106629;1273;22596;-63
2023/05/04 10:03:49;;;;;;;4.90;1.20;;;;;;;14.98;43.68;101173.56;106710;1262;22571;-62
2023/05/04 10:06:21;;;;;;;6.20;1.10;;;;;;;14.99;44.15;101172.50;106518;1273;22661;-64
2023/05/04 10:08:53;;;;;;;6.80;1.10;;;;;;;15.04;43.54;101168.74;106631;1270;26631;-62
2023/05/04 10:11:25;;;;;;;7.70;1.30;;;;;;;15.05;43.73;101165.96;106622;1277;24379;-63
2023/05/04 10:13:58;;;;;;;6.40;1.30;;;;;;;15.12;43.40;101170.15;106472;1262;24246;-61
2023/05/04 10:16:36;;;;;;;4.90;1.30;;;;;;;15.10;42.44;101170.59;106629;1262;25431;-62
2023/05/04 10:19:36;;;;;;;3.90;0.90;;;;;;;15.10;43.22;101169.52;106490;1268;24407;-60
2023/05/04 10:22:24;;;;;;;6.00;1.10;;;;;;;15.17;43.31;101163.98;106290;1265;25310;-61
2023/05/04 10:25:36;;;;;;;9.40;1.30;;;;;;;15.19;42.03;101162.23;106477;1270;22540;-62
2023/05/04 10:28:19;;;;;;;13.90;1.50;;;;;;;15.19;42.96;101154.98;106571;1268;25450;-61
2023/05/04 10:30:57;;;;;;;4.80;1.20;;;;;;;15.32;43.21;101152.66;106528;1277;24402;-61
2023/05/04 10:33:40;;;;;;;8.90;1.40;;;;;;;15.42;43.04;101149.98;106623;1272;25746;-61
2023/05/04 10:36:12;;;;;;;6.20;1.10;;;;;;;15.48;42.50;101146.70;106474;1272;22662;-61
2023/05/04 10:38:43;;;;;;;6.00;1.10;;;;;;;15.44;42.06;101139.76;106658;1262;24142;-61
2023/05/04 10:41:20;;;;;;;8.80;1.30;;;;;;;15.47;42.80;101140.77;106534;1277;22570;-64
2023/05/04 10:44:03;;;;;;;5.00;1.20;;;;;;;15.54;42.11;101139.93;106576;1270;24276;-61
2023/05/04 10:46:34;;;;;;;6.10;1.10;;;;;;;15.55;41.94;101140.50;106375;1277;25261;-62
2023/05/04 10:49:16;;;;;;;5.30;1.00;;;;;;;15.55;41.88;101139.03;106414;1262;25345;-62
2023/05/04 10:51:47;;;;;;;5.80;1.10;;;;;;;15.55;41.58;101132.22;106478;1274;23170;-62
2023/05/04 10:54:22;;;;;;;7.90;1.20;;;;;;;15.58;41.73;101130.05;106387;1271;23483;-59
2023/05/04 10:57:04;;;;;;;5.40;1.10;;;;;;;15.59;41.37;101126.34;106798;1271;25380;-61
2023/05/04 10:59:35;;;;;;;7.80;1.50;;;;;;;15.61;41.16;101124.67;106386;1272;22525;-62
2023/05/04 11:02:06;;;;;;;5.50;1.30;;;;;;;15.64;41.02;101121.65;106500;1277;25549;-61
2023/05/04 11:04:39;;;;;;;3.60;0.90;;;;;;;15.65;41.02;101112.64;106542;1266;22524;-63
2023/05/04 11:07:10;;;;;;;8.30;1.00;;;;;;;15.65;41.19;101107.64;106342;1272;24019;-60
2023/05/04 11:09:44;;;;;;;6.60;1.40;;;;;;;15.74;41.15;101105.17;106531;1268;23273;-60
2023/05/04 11:12:17;;;;;;;7.30;1.20;;;;;;;15.84;41.36;101103.14;106525;1273;22541;-61
2023/05/04 11:14:49;;;;;;;3.80;1.00;;;;;;;15.88;40.99;101102.88;106677;1273;25340;-61
2023/05/04 11:17:20;;;;;;;3.80;1.00;;;;;;;15.86;40.16;101097.66;106628;1256;22613;-60
2023/05/04 11:19:52;;;;;;;6.30;0.90;;;;;;;15.83;40.69;101096.12;106394;1263;22581;-61
2023/05/04 11:22:24;;;;;;;6.40;1.10;;;;;;;15.86;40.88;101092.98;106503;1277;22525;-61
2023/05/04 11:25:05;;;;;;;5.50;1.10;;;;;;;15.97;41.12;101087.57;102493;1262;5416355;-60
2023/05/04 11:27:37;;;;;;;5.70;1.00;;;;;;;16.05;40.63;101082.14;106559;1263;23033;-60
2023/05/04 11:30:10;;;;;;;7.20;1.10;;;;;;;16.07;40.38;101077.54;106546;1277;24267;-60
2023/05/04 11:32:45;;;;;;;5.10;0.80;;;;;;;16.09;40.23;101073.72;106536;1276;22525;-60
2023/05/04 11:35:21;;;;;;;4.20;0.90;;;;;;;16.11;40.09;101072.30;106637;1269;25375;-61
2023/05/04 11:37:52;;;;;;;8.00;1.10;;;;;;;16.12;40.07;101072.58;106909;1270;22536;-60